createdAt,value
2023-12-03T14:38:24.215Z,50.0
2023-12-03T14:40:24.232Z,53.9
2023-12-03T14:42:24.238Z,69.7
2023-12-03T14:44:24.229Z,85.7
2023-12-03T14:46:24.252Z,91.9
2023-12-03T14:48:24.328Z,93.9
2023-12-03T14:52:24.266Z,95.4
2023-12-03T14:54:24.301Z,95.4
2023-12-03T15:00:24.271Z,96.0
2023-12-03T15:04:24.230Z,95.8
2023-12-03T15:06:24.268Z,96.6
2023-12-03T15:12:24.411Z,95.9
2023-12-03T15:14:24.219Z,95.1
2023-12-03T15:18:24.332Z,94.6
2023-12-03T15:20:24.341Z,95.2
2023-12-03T15:22:24.281Z,95.7
2023-12-03T15:24:24.275Z,94.0
2023-12-03T15:26:24.233Z,93.3
2023-12-03T15:28:24.445Z,93.9
2023-12-03T15:32:24.284Z,94.0
2023-12-03T15:34:24.263Z,94.1
2023-12-03T15:40:24.286Z,95.0
2023-12-03T15:42:24.308Z,94.2
2023-12-03T15:44:24.282Z,92.5
2023-12-03T15:46:24.245Z,93.5
2023-12-03T15:48:24.359Z,93.8
2023-12-03T15:52:24.263Z,93.9
2023-12-03T15:54:24.275Z,93.4
2023-12-03T15:56:24.265Z,93.6
2023-12-03T15:58:24.246Z,93.7
2023-12-03T16:00:24.288Z,92.7
2023-12-03T16:04:24.327Z,92.2
2023-12-03T16:12:24.331Z,92.0
2023-12-03T16:14:24.295Z,92.8
2023-12-03T16:22:24.284Z,92.9
2023-12-03T16:28:24.294Z,92.4
2023-12-03T16:32:24.350Z,91.9
2023-12-03T16:36:24.290Z,92.0
2023-12-03T16:42:24.309Z,91.1
2023-12-03T16:44:24.324Z,91.0
2023-12-03T16:46:24.281Z,91.0
2023-12-03T16:48:24.481Z,92.0
2023-12-03T16:56:24.293Z,91.5
2023-12-03T16:58:24.301Z,91.5
2023-12-03T17:00:24.339Z,91.2
2023-12-03T17:08:24.322Z,91.2
2023-12-03T17:16:24.328Z,91.5
2023-12-03T17:18:24.404Z,91.4
2023-12-03T17:20:24.298Z,91.1
2023-12-03T17:22:24.340Z,91.7
2023-12-03T17:30:24.417Z,92.7
2023-12-03T17:34:24.366Z,90.8
2023-12-03T17:40:24.423Z,91.4
2023-12-03T17:42:24.353Z,91.1
2023-12-03T17:44:24.335Z,90.9
2023-12-03T17:52:24.355Z,92.0
2023-12-03T17:54:24.420Z,91.7
2023-12-03T17:56:24.340Z,92.2
2023-12-03T17:58:24.357Z,92.2
2023-12-03T18:02:24.377Z,91.5
2023-12-03T18:06:24.365Z,91.6
2023-12-03T18:10:24.354Z,91.4
2023-12-03T18:12:24.390Z,91.0
2023-12-03T18:14:24.319Z,91.9
2023-12-03T18:16:24.328Z,91.1
2023-12-03T18:18:24.464Z,91.5
2023-12-03T18:20:24.326Z,95.2
2023-12-03T18:22:24.357Z,91.7
2023-12-03T18:24:24.392Z,95.1
2023-12-03T18:26:24.331Z,96.8
2023-12-03T18:28:24.367Z,91.4
2023-12-03T18:30:24.402Z,95.4
2023-12-03T18:32:24.448Z,94.4
2023-12-03T18:34:24.387Z,93.0
2023-12-03T18:36:24.381Z,96.7
2023-12-03T18:40:24.442Z,96.8
2023-12-03T18:42:24.405Z,98.0
2023-12-03T18:44:24.351Z,93.4
2023-12-03T18:46:24.337Z,95.4
2023-12-03T18:48:24.506Z,92.0
2023-12-03T18:50:24.360Z,92.4
2023-12-03T18:52:24.372Z,92.1
2023-12-03T18:54:24.383Z,92.7
2023-12-03T18:56:24.379Z,91.8
2023-12-03T18:58:24.382Z,93.4
2023-12-03T19:00:24.813Z,93.9
2023-12-03T19:02:24.387Z,94.8
2023-12-03T19:04:24.494Z,96.6
2023-12-03T19:06:24.510Z,92.7
2023-12-03T19:08:25.010Z,94.6
2023-12-03T19:10:24.398Z,93.9
2023-12-03T19:12:24.394Z,95.9
2023-12-03T19:14:24.440Z,95.4
2023-12-03T19:16:24.389Z,98.9
2023-12-03T19:18:24.453Z,95.7
2023-12-03T19:20:24.383Z,97.6
2023-12-03T19:22:24.371Z,97.9
2023-12-03T19:26:24.392Z,97.7
2023-12-03T19:28:24.939Z,94.1
2023-12-03T19:30:24.438Z,96.2
2023-12-03T19:32:24.461Z,93.4
2023-12-03T19:34:24.452Z,96.1
2023-12-03T19:36:24.397Z,96.8
2023-12-03T19:38:24.403Z,98.2
2023-12-03T19:42:24.631Z,98.1
2023-12-03T19:44:24.412Z,97.5
2023-12-03T19:46:24.395Z,96.8
2023-12-03T19:48:24.549Z,96.4
2023-12-03T19:50:24.389Z,94.9
2023-12-03T19:52:24.423Z,96.5
2023-12-03T19:54:24.410Z,98.9
2023-12-03T19:56:24.406Z,98.6
2023-12-03T19:58:24.505Z,97.1
2023-12-03T20:00:24.434Z,99.2
2023-12-03T20:02:24.405Z,98.4
2023-12-03T20:04:24.526Z,98.9
2023-12-03T20:06:24.389Z,97.4
2023-12-03T20:08:24.422Z,99.5
2023-12-03T20:10:24.417Z,97.9
2023-12-03T20:12:24.420Z,98.9
2023-12-03T20:14:25.309Z,99.6
2023-12-03T20:16:24.435Z,99.2
2023-12-03T20:18:24.427Z,98.1
2023-12-03T20:20:24.474Z,100.0
2023-12-03T20:24:24.400Z,98.3
2023-12-03T20:26:24.474Z,97.4
2023-12-03T20:28:24.414Z,97.8
2023-12-03T20:30:24.410Z,97.2
2023-12-03T20:32:24.451Z,97.5
2023-12-03T20:34:24.460Z,98.1
2023-12-03T20:36:24.432Z,98.6
2023-12-03T20:38:24.447Z,99.0
2023-12-03T20:44:24.439Z,98.7
2023-12-03T20:46:24.411Z,99.2
2023-12-03T20:48:24.422Z,97.2
2023-12-03T20:50:24.443Z,99.0
2023-12-03T20:54:24.445Z,100.0
2023-12-03T20:58:24.435Z,98.2
2023-12-03T21:00:24.430Z,98.2
2023-12-03T21:02:24.447Z,98.0
2023-12-03T21:04:24.513Z,97.5
2023-12-03T21:06:24.451Z,97.4
2023-12-03T21:10:24.444Z,96.8
2023-12-03T21:12:24.462Z,98.1
2023-12-03T21:14:24.432Z,96.6
2023-12-03T21:16:24.467Z,99.3
2023-12-03T21:18:24.467Z,96.4
2023-12-03T21:20:24.487Z,95.6
2023-12-03T21:22:24.474Z,97.7
2023-12-03T21:24:24.467Z,95.6
2023-12-03T21:26:24.443Z,95.6
2023-12-03T21:30:24.451Z,95.7
2023-12-03T21:32:24.467Z,98.3
2023-12-03T21:36:24.474Z,95.7
2023-12-03T21:42:24.484Z,92.8
2023-12-03T21:44:24.503Z,92.9
2023-12-03T21:46:24.484Z,95.8
2023-12-03T21:51:34.125Z,79.4
2023-12-03T21:53:34.023Z,55.2
2023-12-03T21:55:34.049Z,46.7
2023-12-03T21:57:34.116Z,50.7
2023-12-03T21:59:34.050Z,56.1
2023-12-03T22:01:34.039Z,58.5
2023-12-03T22:03:34.205Z,64.0
2023-12-03T22:05:34.051Z,68.8
2023-12-03T22:07:34.074Z,72.1
2023-12-03T22:09:34.080Z,77.0
2023-12-03T22:11:34.063Z,79.2
2023-12-03T22:13:34.057Z,80.6
2023-12-03T22:15:34.109Z,82.7
2023-12-03T22:17:34.047Z,84.5
2023-12-03T22:19:34.227Z,85.1
2023-12-03T22:21:34.135Z,85.5
2023-12-03T22:23:34.064Z,86.0
2023-12-03T22:25:34.085Z,85.2
2023-12-03T22:27:34.164Z,85.9
2023-12-03T22:29:44.558Z,87.2
2023-12-03T22:31:34.047Z,85.5
2023-12-03T22:39:34.134Z,88.8
2023-12-03T22:41:34.064Z,88.3
2023-12-03T22:43:34.072Z,87.8
2023-12-03T22:49:34.103Z,87.8
2023-12-03T22:51:34.102Z,86.9
2023-12-03T22:55:34.115Z,87.0
2023-12-03T22:59:34.075Z,87.9
2023-12-03T23:01:34.138Z,87.1
2023-12-03T23:07:34.109Z,88.1
2023-12-03T23:09:36.474Z,87.6
2023-12-03T23:13:34.111Z,87.2
2023-12-03T23:15:34.122Z,87.3
2023-12-03T23:17:34.144Z,87.0
2023-12-03T23:19:34.201Z,87.0
2023-12-03T23:23:34.107Z,88.0
2023-12-03T23:27:34.165Z,88.1
2023-12-03T23:31:34.118Z,88.0
2023-12-03T23:33:34.333Z,88.3
2023-12-03T23:35:34.085Z,88.2
2023-12-03T23:37:34.084Z,87.3
2023-12-03T23:45:34.155Z,87.3
2023-12-03T23:47:34.230Z,86.6
2023-12-03T23:57:34.156Z,87.2
